sensor_id;sensor_type;location;lat;lon;timestamp;P1;durP1;ratioP1;P2;durP2;ratioP2
20609;SDS011;10463;52.378;9.688;2023-02-28T00:01:44;1.83;;;1.40;;
20609;SDS011;10463;52.378;9.688;2023-02-28T00:04:29;2.00;;;1.60;;
20609;SDS011;10463;52.378;9.688;2023-02-28T00:07:14;1.80;;;1.17;;
20609;SDS011;10463;52.378;9.688;2023-02-28T00:09:59;2.00;;;1.47;;
20609;SDS011;10463;52.378;9.688;2023-02-28T00:12:43;2.37;;;1.63;;
20609;SDS011;10463;52.378;9.688;2023-02-28T00:15:30;1.87;;;1.20;;
20609;SDS011;10463;52.378;9.688;2023-02-28T00:18:15;1.70;;;1.30;;
20609;SDS011;10463;52.378;9.688;2023-02-28T00:20:59;2.20;;;1.97;;
20609;SDS011;10463;52.378;9.688;2023-02-28T00:23:44;2.07;;;1.30;;
20609;SDS011;10463;52.378;9.688;2023-02-28T00:26:29;2.43;;;1.60;;
20609;SDS011;10463;52.378;9.688;2023-02-28T00:29:14;2.57;;;1.53;;
20609;SDS011;10463;52.378;9.688;2023-02-28T00:32:00;2.00;;;1.40;;
20609;SDS011;10463;52.378;9.688;2023-02-28T00:34:45;1.73;;;1.30;;
20609;SDS011;10463;52.378;9.688;2023-02-28T00:37:30;2.53;;;1.50;;
20609;SDS011;10463;52.378;9.688;2023-02-28T00:40:15;2.70;;;1.40;;
20609;SDS011;10463;52.378;9.688;2023-02-28T00:43:00;1.60;;;1.10;;
20609;SDS011;10463;52.378;9.688;2023-02-28T00:45:45;2.40;;;1.47;;
20609;SDS011;10463;52.378;9.688;2023-02-28T00:48:34;2.17;;;1.20;;
20609;SDS011;10463;52.378;9.688;2023-02-28T00:51:19;2.00;;;1.20;;
20609;SDS011;10463;52.378;9.688;2023-02-28T00:54:04;2.17;;;1.47;;
20609;SDS011;10463;52.378;9.688;2023-02-28T00:56:49;2.17;;;1.30;;
20609;SDS011;10463;52.378;9.688;2023-02-28T00:59:34;2.13;;;1.27;;
20609;SDS011;10463;52.378;9.688;2023-02-28T01:02:22;2.37;;;1.43;;
20609;SDS011;10463;52.378;9.688;2023-02-28T01:05:09;1.90;;;1.50;;
20609;SDS011;10463;52.378;9.688;2023-02-28T01:07:54;2.00;;;1.20;;
20609;SDS011;10463;52.378;9.688;2023-02-28T01:10:38;1.60;;;1.13;;
20609;SDS011;10463;52.378;9.688;2023-02-28T01:13:24;1.90;;;1.20;;
20609;SDS011;10463;52.378;9.688;2023-02-28T01:16:09;2.30;;;1.30;;
20609;SDS011;10463;52.378;9.688;2023-02-28T01:18:54;1.93;;;1.40;;
20609;SDS011;10463;52.378;9.688;2023-02-28T01:21:40;2.60;;;1.83;;
20609;SDS011;10463;52.378;9.688;2023-02-28T01:24:25;1.87;;;1.03;;
20609;SDS011;10463;52.378;9.688;2023-02-28T01:27:10;2.23;;;1.30;;
20609;SDS011;10463;52.378;9.688;2023-02-28T01:29:54;2.40;;;1.33;;
20609;SDS011;10463;52.378;9.688;2023-02-28T01:32:39;2.50;;;1.30;;
20609;SDS011;10463;52.378;9.688;2023-02-28T01:35:24;2.03;;;1.50;;
20609;SDS011;10463;52.378;9.688;2023-02-28T01:38:10;1.90;;;1.23;;
20609;SDS011;10463;52.378;9.688;2023-02-28T01:40:55;1.90;;;1.20;;
20609;SDS011;10463;52.378;9.688;2023-02-28T01:43:56;1.83;;;1.20;;
20609;SDS011;10463;52.378;9.688;2023-02-28T01:46:43;1.70;;;1.20;;
20609;SDS011;10463;52.378;9.688;2023-02-28T01:49:28;2.10;;;1.23;;
20609;SDS011;10463;52.378;9.688;2023-02-28T01:52:14;1.93;;;1.30;;
20609;SDS011;10463;52.378;9.688;2023-02-28T01:55:04;1.90;;;1.47;;
20609;SDS011;10463;52.378;9.688;2023-02-28T01:57:56;2.13;;;1.50;;
20609;SDS011;10463;52.378;9.688;2023-02-28T02:00:43;2.27;;;1.30;;
20609;SDS011;10463;52.378;9.688;2023-02-28T02:03:28;2.33;;;1.33;;
20609;SDS011;10463;52.378;9.688;2023-02-28T02:06:14;1.93;;;1.50;;
20609;SDS011;10463;52.378;9.688;2023-02-28T02:08:59;2.07;;;1.40;;
20609;SDS011;10463;52.378;9.688;2023-02-28T02:11:45;2.10;;;1.10;;
20609;SDS011;10463;52.378;9.688;2023-02-28T02:14:41;3.30;;;1.50;;
20609;SDS011;10463;52.378;9.688;2023-02-28T02:17:37;2.20;;;1.50;;
20609;SDS011;10463;52.378;9.688;2023-02-28T02:24:16;1.67;;;1.30;;
20609;SDS011;10463;52.378;9.688;2023-02-28T02:27:27;2.30;;;1.50;;
20609;SDS011;10463;52.378;9.688;2023-02-28T02:30:49;2.47;;;1.23;;
20609;SDS011;10463;52.378;9.688;2023-02-28T02:37:29;2.50;;;1.43;;
20609;SDS011;10463;52.378;9.688;2023-02-28T02:40:22;2.10;;;1.50;;
20609;SDS011;10463;52.378;9.688;2023-02-28T02:43:15;2.07;;;1.50;;
20609;SDS011;10463;52.378;9.688;2023-02-28T02:46:06;2.33;;;1.57;;
20609;SDS011;10463;52.378;9.688;2023-02-28T02:48:54;1.60;;;1.10;;
20609;SDS011;10463;52.378;9.688;2023-02-28T02:51:43;1.70;;;1.30;;
20609;SDS011;10463;52.378;9.688;2023-02-28T02:54:32;1.97;;;1.33;;
20609;SDS011;10463;52.378;9.688;2023-02-28T02:57:22;2.30;;;1.60;;
20609;SDS011;10463;52.378;9.688;2023-02-28T03:00:11;2.30;;;1.83;;
20609;SDS011;10463;52.378;9.688;2023-02-28T03:02:59;2.73;;;1.63;;
20609;SDS011;10463;52.378;9.688;2023-02-28T03:05:46;3.17;;;1.97;;
20609;SDS011;10463;52.378;9.688;2023-02-28T03:08:36;2.80;;;1.70;;
20609;SDS011;10463;52.378;9.688;2023-02-28T03:11:22;1.67;;;1.30;;
20609;SDS011;10463;52.378;9.688;2023-02-28T03:14:18;2.87;;;1.60;;
20609;SDS011;10463;52.378;9.688;2023-02-28T03:17:21;2.50;;;1.60;;
20609;SDS011;10463;52.378;9.688;2023-02-28T03:20:17;2.20;;;1.50;;
20609;SDS011;10463;52.378;9.688;2023-02-28T03:23:17;2.37;;;1.43;;
20609;SDS011;10463;52.378;9.688;2023-02-28T03:26:10;2.10;;;1.40;;
20609;SDS011;10463;52.378;9.688;2023-02-28T03:29:03;2.73;;;2.20;;
20609;SDS011;10463;52.378;9.688;2023-02-28T03:31:53;2.20;;;1.27;;
20609;SDS011;10463;52.378;9.688;2023-02-28T03:34:43;2.13;;;1.60;;
20609;SDS011;10463;52.378;9.688;2023-02-28T03:37:34;2.23;;;1.73;;
20609;SDS011;10463;52.378;9.688;2023-02-28T03:40:22;2.60;;;2.20;;
20609;SDS011;10463;52.378;9.688;2023-02-28T03:43:13;2.60;;;1.77;;
20609;SDS011;10463;52.378;9.688;2023-02-28T03:46:05;2.30;;;1.40;;
20609;SDS011;10463;52.378;9.688;2023-02-28T03:48:56;2.63;;;1.70;;
20609;SDS011;10463;52.378;9.688;2023-02-28T03:51:46;2.30;;;1.53;;
20609;SDS011;10463;52.378;9.688;2023-02-28T03:54:35;2.93;;;1.80;;
20609;SDS011;10463;52.378;9.688;2023-02-28T03:57:27;2.93;;;1.90;;
20609;SDS011;10463;52.378;9.688;2023-02-28T04:00:21;2.50;;;2.00;;
20609;SDS011;10463;52.378;9.688;2023-02-28T04:03:12;2.20;;;1.53;;
20609;SDS011;10463;52.378;9.688;2023-02-28T04:05:57;2.90;;;2.00;;
20609;SDS011;10463;52.378;9.688;2023-02-28T04:08:43;2.90;;;2.30;;
20609;SDS011;10463;52.378;9.688;2023-02-28T04:11:30;2.90;;;1.80;;
20609;SDS011;10463;52.378;9.688;2023-02-28T04:14:19;3.00;;;2.20;;
20609;SDS011;10463;52.378;9.688;2023-02-28T04:17:05;2.47;;;1.60;;
20609;SDS011;10463;52.378;9.688;2023-02-28T04:19:49;2.70;;;1.80;;
20609;SDS011;10463;52.378;9.688;2023-02-28T04:22:34;2.57;;;1.77;;
20609;SDS011;10463;52.378;9.688;2023-02-28T04:25:19;2.37;;;1.67;;
20609;SDS011;10463;52.378;9.688;2023-02-28T04:28:04;3.00;;;2.00;;
20609;SDS011;10463;52.378;9.688;2023-02-28T04:30:54;2.37;;;1.80;;
20609;SDS011;10463;52.378;9.688;2023-02-28T04:33:40;2.03;;;1.57;;
20609;SDS011;10463;52.378;9.688;2023-02-28T04:36:26;2.23;;;1.80;;
20609;SDS011;10463;52.378;9.688;2023-02-28T04:39:11;2.20;;;1.83;;
20609;SDS011;10463;52.378;9.688;2023-02-28T04:41:56;2.77;;;1.63;;
20609;SDS011;10463;52.378;9.688;2023-02-28T04:44:41;2.70;;;1.83;;
20609;SDS011;10463;52.378;9.688;2023-02-28T04:47:26;2.30;;;1.80;;
20609;SDS011;10463;52.378;9.688;2023-02-28T04:50:12;3.13;;;2.10;;
20609;SDS011;10463;52.378;9.688;2023-02-28T04:52:56;3.07;;;1.80;;
20609;SDS011;10463;52.378;9.688;2023-02-28T04:55:41;2.80;;;2.07;;
20609;SDS011;10463;52.378;9.688;2023-02-28T04:58:26;3.20;;;2.20;;
20609;SDS011;10463;52.378;9.688;2023-02-28T05:01:21;2.10;;;1.43;;
20609;SDS011;10463;52.378;9.688;2023-02-28T05:04:08;2.50;;;1.60;;
20609;SDS011;10463;52.378;9.688;2023-02-28T05:06:54;2.07;;;1.63;;
20609;SDS011;10463;52.378;9.688;2023-02-28T05:09:39;2.40;;;1.50;;
20609;SDS011;10463;52.378;9.688;2023-02-28T05:12:24;2.40;;;2.00;;
20609;SDS011;10463;52.378;9.688;2023-02-28T05:15:10;2.67;;;1.90;;
20609;SDS011;10463;52.378;9.688;2023-02-28T05:17:58;2.40;;;1.70;;
20609;SDS011;10463;52.378;9.688;2023-02-28T05:20:43;2.43;;;1.67;;
20609;SDS011;10463;52.378;9.688;2023-02-28T05:23:29;2.63;;;1.67;;
20609;SDS011;10463;52.378;9.688;2023-02-28T05:26:14;2.10;;;1.60;;
20609;SDS011;10463;52.378;9.688;2023-02-28T05:28:58;3.53;;;2.63;;
20609;SDS011;10463;52.378;9.688;2023-02-28T05:31:43;2.10;;;1.63;;
20609;SDS011;10463;52.378;9.688;2023-02-28T05:34:27;2.50;;;1.77;;
20609;SDS011;10463;52.378;9.688;2023-02-28T05:37:12;2.80;;;1.73;;
20609;SDS011;10463;52.378;9.688;2023-02-28T05:40:00;2.07;;;1.53;;
20609;SDS011;10463;52.378;9.688;2023-02-28T05:42:45;2.67;;;1.60;;
20609;SDS011;10463;52.378;9.688;2023-02-28T05:45:30;2.53;;;1.83;;
20609;SDS011;10463;52.378;9.688;2023-02-28T05:48:15;3.47;;;1.83;;
20609;SDS011;10463;52.378;9.688;2023-02-28T05:51:00;2.10;;;1.60;;
20609;SDS011;10463;52.378;9.688;2023-02-28T05:53:46;2.13;;;1.60;;
20609;SDS011;10463;52.378;9.688;2023-02-28T05:56:34;3.43;;;1.50;;
20609;SDS011;10463;52.378;9.688;2023-02-28T05:59:19;2.30;;;1.83;;
20609;SDS011;10463;52.378;9.688;2023-02-28T06:02:06;2.80;;;1.77;;
20609;SDS011;10463;52.378;9.688;2023-02-28T06:04:56;2.63;;;2.00;;
20609;SDS011;10463;52.378;9.688;2023-02-28T06:07:40;2.47;;;1.90;;
20609;SDS011;10463;52.378;9.688;2023-02-28T06:10:25;2.40;;;1.90;;
20609;SDS011;10463;52.378;9.688;2023-02-28T06:13:11;1.90;;;1.60;;
20609;SDS011;10463;52.378;9.688;2023-02-28T06:15:56;2.80;;;1.93;;
20609;SDS011;10463;52.378;9.688;2023-02-28T06:18:44;2.77;;;2.07;;
20609;SDS011;10463;52.378;9.688;2023-02-28T06:21:29;2.73;;;1.80;;
20609;SDS011;10463;52.378;9.688;2023-02-28T06:24:14;3.30;;;2.20;;
20609;SDS011;10463;52.378;9.688;2023-02-28T06:26:59;2.30;;;2.07;;
20609;SDS011;10463;52.378;9.688;2023-02-28T06:29:53;2.43;;;1.90;;
20609;SDS011;10463;52.378;9.688;2023-02-28T06:32:40;2.73;;;2.03;;
20609;SDS011;10463;52.378;9.688;2023-02-28T06:35:24;3.53;;;2.47;;
20609;SDS011;10463;52.378;9.688;2023-02-28T06:38:10;3.10;;;1.97;;
20609;SDS011;10463;52.378;9.688;2023-02-28T06:40:56;2.77;;;2.17;;
20609;SDS011;10463;52.378;9.688;2023-02-28T06:43:42;3.10;;;2.17;;
20609;SDS011;10463;52.378;9.688;2023-02-28T06:46:29;2.43;;;2.03;;
20609;SDS011;10463;52.378;9.688;2023-02-28T06:49:14;2.77;;;2.50;;
20609;SDS011;10463;52.378;9.688;2023-02-28T06:52:00;2.60;;;2.03;;
20609;SDS011;10463;52.378;9.688;2023-02-28T06:54:45;3.53;;;2.20;;
20609;SDS011;10463;52.378;9.688;2023-02-28T06:57:30;3.57;;;2.50;;
20609;SDS011;10463;52.378;9.688;2023-02-28T07:00:16;2.67;;;2.17;;
20609;SDS011;10463;52.378;9.688;2023-02-28T07:03:05;3.00;;;2.40;;
20609;SDS011;10463;52.378;9.688;2023-02-28T07:05:49;3.93;;;2.10;;
20609;SDS011;10463;52.378;9.688;2023-02-28T07:08:34;3.00;;;2.10;;
20609;SDS011;10463;52.378;9.688;2023-02-28T07:11:26;3.70;;;2.67;;
20609;SDS011;10463;52.378;9.688;2023-02-28T07:14:12;2.83;;;1.83;;
20609;SDS011;10463;52.378;9.688;2023-02-28T07:16:56;2.70;;;2.20;;
20609;SDS011;10463;52.378;9.688;2023-02-28T07:19:42;2.83;;;1.87;;
20609;SDS011;10463;52.378;9.688;2023-02-28T07:22:27;2.53;;;1.93;;
20609;SDS011;10463;52.378;9.688;2023-02-28T07:25:12;2.30;;;1.70;;
20609;SDS011;10463;52.378;9.688;2023-02-28T07:27:57;3.00;;;2.17;;
20609;SDS011;10463;52.378;9.688;2023-02-28T07:30:43;3.10;;;2.10;;
20609;SDS011;10463;52.378;9.688;2023-02-28T07:33:28;3.43;;;2.30;;
20609;SDS011;10463;52.378;9.688;2023-02-28T07:36:15;2.10;;;1.57;;
20609;SDS011;10463;52.378;9.688;2023-02-28T07:39:02;3.10;;;2.10;;
20609;SDS011;10463;52.378;9.688;2023-02-28T07:41:48;2.80;;;2.10;;
20609;SDS011;10463;52.378;9.688;2023-02-28T07:47:14;2.80;;;2.30;;
20609;SDS011;10463;52.378;9.688;2023-02-28T07:49:59;2.93;;;2.20;;
20609;SDS011;10463;52.378;9.688;2023-02-28T07:52:45;2.57;;;2.20;;
20609;SDS011;10463;52.378;9.688;2023-02-28T07:55:30;3.90;;;2.63;;
20609;SDS011;10463;52.378;9.688;2023-02-28T07:58:14;3.03;;;2.17;;
20609;SDS011;10463;52.378;9.688;2023-02-28T08:01:05;2.50;;;2.10;;
20609;SDS011;10463;52.378;9.688;2023-02-28T08:03:50;2.60;;;1.80;;
20609;SDS011;10463;52.378;9.688;2023-02-28T08:06:35;2.57;;;2.30;;
20609;SDS011;10463;52.378;9.688;2023-02-28T08:09:21;2.70;;;1.93;;
20609;SDS011;10463;52.378;9.688;2023-02-28T08:12:06;2.13;;;1.93;;
20609;SDS011;10463;52.378;9.688;2023-02-28T08:14:51;3.30;;;2.50;;
20609;SDS011;10463;52.378;9.688;2023-02-28T08:17:36;2.70;;;2.23;;
20609;SDS011;10463;52.378;9.688;2023-02-28T08:20:21;4.17;;;2.67;;
20609;SDS011;10463;52.378;9.688;2023-02-28T08:23:06;3.00;;;2.10;;
20609;SDS011;10463;52.378;9.688;2023-02-28T08:25:56;2.43;;;2.03;;
20609;SDS011;10463;52.378;9.688;2023-02-28T08:28:40;2.30;;;1.93;;
20609;SDS011;10463;52.378;9.688;2023-02-28T08:31:25;3.03;;;2.07;;
20609;SDS011;10463;52.378;9.688;2023-02-28T08:34:12;2.93;;;2.33;;
20609;SDS011;10463;52.378;9.688;2023-02-28T08:36:58;2.77;;;2.40;;
20609;SDS011;10463;52.378;9.688;2023-02-28T08:39:43;2.50;;;1.93;;
20609;SDS011;10463;52.378;9.688;2023-02-28T08:42:29;2.73;;;1.83;;
20609;SDS011;10463;52.378;9.688;2023-02-28T08:45:14;3.30;;;2.57;;
20609;SDS011;10463;52.378;9.688;2023-02-28T08:47:59;2.90;;;2.13;;
20609;SDS011;10463;52.378;9.688;2023-02-28T08:50:44;2.90;;;2.20;;
20609;SDS011;10463;52.378;9.688;2023-02-28T08:53:29;3.50;;;2.50;;
20609;SDS011;10463;52.378;9.688;2023-02-28T08:56:15;2.50;;;2.00;;
20609;SDS011;10463;52.378;9.688;2023-02-28T08:59:02;3.03;;;2.10;;
20609;SDS011;10463;52.378;9.688;2023-02-28T09:01:47;2.30;;;2.03;;
20609;SDS011;10463;52.378;9.688;2023-02-28T09:04:33;3.10;;;2.00;;
20609;SDS011;10463;52.378;9.688;2023-02-28T09:07:18;2.50;;;1.87;;
20609;SDS011;10463;52.378;9.688;2023-02-28T09:10:03;2.77;;;2.23;;
20609;SDS011;10463;52.378;9.688;2023-02-28T09:12:48;2.50;;;2.00;;
20609;SDS011;10463;52.378;9.688;2023-02-28T09:15:34;3.13;;;2.23;;
20609;SDS011;10463;52.378;9.688;2023-02-28T09:18:20;3.40;;;2.47;;
20609;SDS011;10463;52.378;9.688;2023-02-28T09:21:06;3.70;;;2.50;;
20609;SDS011;10463;52.378;9.688;2023-02-28T09:23:52;2.70;;;2.20;;
20609;SDS011;10463;52.378;9.688;2023-02-28T09:26:37;3.07;;;2.40;;
20609;SDS011;10463;52.378;9.688;2023-02-28T09:29:22;2.40;;;2.10;;
20609;SDS011;10463;52.378;9.688;2023-02-28T09:32:08;3.17;;;2.50;;
20609;SDS011;10463;52.378;9.688;2023-02-28T09:34:52;3.00;;;2.10;;
20609;SDS011;10463;52.378;9.688;2023-02-28T09:37:37;2.60;;;2.33;;
20609;SDS011;10463;52.378;9.688;2023-02-28T09:40:23;3.37;;;2.70;;
20609;SDS011;10463;52.378;9.688;2023-02-28T09:43:09;3.77;;;3.20;;
20609;SDS011;10463;52.378;9.688;2023-02-28T09:46:00;3.30;;;2.50;;
20609;SDS011;10463;52.378;9.688;2023-02-28T09:48:54;3.53;;;2.80;;
20609;SDS011;10463;52.378;9.688;2023-02-28T09:51:45;5.23;;;3.67;;
20609;SDS011;10463;52.378;9.688;2023-02-28T09:54:35;5.03;;;3.97;;
20609;SDS011;10463;52.378;9.688;2023-02-28T09:57:24;4.07;;;3.50;;
20609;SDS011;10463;52.378;9.688;2023-02-28T10:00:18;4.80;;;4.00;;
20609;SDS011;10463;52.378;9.688;2023-02-28T10:03:17;4.90;;;3.90;;
20609;SDS011;10463;52.378;9.688;2023-02-28T10:06:17;4.03;;;3.20;;
20609;SDS011;10463;52.378;9.688;2023-02-28T10:09:06;5.77;;;4.13;;
20609;SDS011;10463;52.378;9.688;2023-02-28T10:12:00;4.77;;;4.07;;
20609;SDS011;10463;52.378;9.688;2023-02-28T10:14:50;6.90;;;5.23;;
20609;SDS011;10463;52.378;9.688;2023-02-28T10:17:39;4.60;;;4.10;;
20609;SDS011;10463;52.378;9.688;2023-02-28T10:20:26;5.53;;;4.40;;
20609;SDS011;10463;52.378;9.688;2023-02-28T10:23:19;5.73;;;4.20;;
20609;SDS011;10463;52.378;9.688;2023-02-28T10:26:09;5.50;;;4.23;;
20609;SDS011;10463;52.378;9.688;2023-02-28T10:28:57;7.13;;;4.77;;
20609;SDS011;10463;52.378;9.688;2023-02-28T10:31:42;6.10;;;4.67;;
20609;SDS011;10463;52.378;9.688;2023-02-28T10:34:27;7.70;;;5.27;;
20609;SDS011;10463;52.378;9.688;2023-02-28T10:37:12;5.17;;;3.80;;
20609;SDS011;10463;52.378;9.688;2023-02-28T10:39:59;4.67;;;3.80;;
20609;SDS011;10463;52.378;9.688;2023-02-28T10:42:53;7.83;;;4.80;;
20609;SDS011;10463;52.378;9.688;2023-02-28T10:45:39;6.37;;;4.80;;
20609;SDS011;10463;52.378;9.688;2023-02-28T10:48:39;5.03;;;4.20;;
20609;SDS011;10463;52.378;9.688;2023-02-28T10:51:27;4.53;;;3.93;;
20609;SDS011;10463;52.378;9.688;2023-02-28T10:54:23;5.47;;;3.90;;
20609;SDS011;10463;52.378;9.688;2023-02-28T10:57:18;5.63;;;3.93;;
20609;SDS011;10463;52.378;9.688;2023-02-28T11:00:12;7.23;;;4.60;;
20609;SDS011;10463;52.378;9.688;2023-02-28T11:03:00;4.40;;;3.50;;
20609;SDS011;10463;52.378;9.688;2023-02-28T11:05:45;4.27;;;3.77;;
20609;SDS011;10463;52.378;9.688;2023-02-28T11:08:30;3.77;;;3.37;;
20609;SDS011;10463;52.378;9.688;2023-02-28T11:11:16;4.40;;;3.50;;
20609;SDS011;10463;52.378;9.688;2023-02-28T11:14:04;5.77;;;3.93;;
20609;SDS011;10463;52.378;9.688;2023-02-28T11:16:50;4.57;;;3.67;;
20609;SDS011;10463;52.378;9.688;2023-02-28T11:19:38;4.60;;;3.87;;
20609;SDS011;10463;52.378;9.688;2023-02-28T11:22:31;4.40;;;3.00;;
20609;SDS011;10463;52.378;9.688;2023-02-28T11:25:22;3.63;;;2.97;;
20609;SDS011;10463;52.378;9.688;2023-02-28T11:28:26;4.30;;;3.20;;
20609;SDS011;10463;52.378;9.688;2023-02-28T11:31:18;3.27;;;2.90;;
20609;SDS011;10463;52.378;9.688;2023-02-28T11:34:22;4.20;;;3.40;;
20609;SDS011;10463;52.378;9.688;2023-02-28T11:37:12;3.73;;;2.97;;
20609;SDS011;10463;52.378;9.688;2023-02-28T11:39:58;4.00;;;3.20;;
20609;SDS011;10463;52.378;9.688;2023-02-28T11:42:50;3.30;;;2.70;;
20609;SDS011;10463;52.378;9.688;2023-02-28T11:45:45;4.10;;;3.20;;
20609;SDS011;10463;52.378;9.688;2023-02-28T11:48:46;3.60;;;2.93;;
20609;SDS011;10463;52.378;9.688;2023-02-28T11:51:44;4.97;;;3.43;;
20609;SDS011;10463;52.378;9.688;2023-02-28T11:54:59;3.40;;;2.80;;
20609;SDS011;10463;52.378;9.688;2023-02-28T12:01:13;3.70;;;3.00;;
20609;SDS011;10463;52.378;9.688;2023-02-28T12:04:17;4.00;;;2.97;;
20609;SDS011;10463;52.378;9.688;2023-02-28T12:07:15;3.77;;;2.73;;
20609;SDS011;10463;52.378;9.688;2023-02-28T12:10:14;3.50;;;2.80;;
20609;SDS011;10463;52.378;9.688;2023-02-28T12:13:12;3.50;;;2.70;;
20609;SDS011;10463;52.378;9.688;2023-02-28T12:16:29;5.07;;;2.87;;
20609;SDS011;10463;52.378;9.688;2023-02-28T12:19:26;3.07;;;2.37;;
20609;SDS011;10463;52.378;9.688;2023-02-28T12:22:27;3.77;;;2.83;;
20609;SDS011;10463;52.378;9.688;2023-02-28T12:28:42;3.10;;;2.53;;
20609;SDS011;10463;52.378;9.688;2023-02-28T12:31:31;3.50;;;2.97;;
20609;SDS011;10463;52.378;9.688;2023-02-28T12:34:21;3.60;;;2.50;;
20609;SDS011;10463;52.378;9.688;2023-02-28T12:37:15;3.80;;;3.03;;
20609;SDS011;10463;52.378;9.688;2023-02-28T12:40:11;3.20;;;2.50;;
20609;SDS011;10463;52.378;9.688;2023-02-28T12:42:59;3.67;;;2.60;;
20609;SDS011;10463;52.378;9.688;2023-02-28T12:45:49;4.40;;;3.00;;
20609;SDS011;10463;52.378;9.688;2023-02-28T12:48:38;3.40;;;2.80;;
20609;SDS011;10463;52.378;9.688;2023-02-28T12:51:27;4.77;;;3.10;;
20609;SDS011;10463;52.378;9.688;2023-02-28T12:54:20;3.93;;;3.53;;
20609;SDS011;10463;52.378;9.688;2023-02-28T12:57:12;3.87;;;3.20;;
20609;SDS011;10463;52.378;9.688;2023-02-28T13:00:04;5.40;;;4.03;;
20609;SDS011;10463;52.378;9.688;2023-02-28T13:03:10;3.70;;;3.13;;
20609;SDS011;10463;52.378;9.688;2023-02-28T13:06:27;4.17;;;3.00;;
20609;SDS011;10463;52.378;9.688;2023-02-28T13:09:25;3.47;;;2.70;;
20609;SDS011;10463;52.378;9.688;2023-02-28T13:12:13;3.20;;;2.40;;
20609;SDS011;10463;52.378;9.688;2023-02-28T13:15:08;3.40;;;2.80;;
20609;SDS011;10463;52.378;9.688;2023-02-28T13:18:05;3.80;;;2.93;;
20609;SDS011;10463;52.378;9.688;2023-02-28T13:21:22;3.40;;;2.97;;
20609;SDS011;10463;52.378;9.688;2023-02-28T13:24:08;4.27;;;3.47;;
20609;SDS011;10463;52.378;9.688;2023-02-28T13:34:06;4.50;;;3.57;;
20609;SDS011;10463;52.378;9.688;2023-02-28T13:40:30;4.00;;;3.40;;
20609;SDS011;10463;52.378;9.688;2023-02-28T13:43:25;4.07;;;3.50;;
20609;SDS011;10463;52.378;9.688;2023-02-28T13:47:18;4.63;;;3.30;;
20609;SDS011;10463;52.378;9.688;2023-02-28T13:50:22;5.53;;;3.30;;
20609;SDS011;10463;52.378;9.688;2023-02-28T13:53:39;4.60;;;3.07;;
20609;SDS011;10463;52.378;9.688;2023-02-28T13:56:43;3.63;;;2.87;;
20609;SDS011;10463;52.378;9.688;2023-02-28T13:59:38;4.27;;;3.47;;
20609;SDS011;10463;52.378;9.688;2023-02-28T14:02:40;4.57;;;3.63;;
20609;SDS011;10463;52.378;9.688;2023-02-28T14:05:43;4.00;;;3.20;;
20609;SDS011;10463;52.378;9.688;2023-02-28T14:08:28;3.40;;;3.00;;
20609;SDS011;10463;52.378;9.688;2023-02-28T14:11:25;3.97;;;2.80;;
20609;SDS011;10463;52.378;9.688;2023-02-28T14:17:41;4.47;;;2.77;;
20609;SDS011;10463;52.378;9.688;2023-02-28T14:20:27;4.00;;;3.07;;
20609;SDS011;10463;52.378;9.688;2023-02-28T14:23:21;5.43;;;3.30;;
20609;SDS011;10463;52.378;9.688;2023-02-28T14:26:30;5.37;;;2.87;;
20609;SDS011;10463;52.378;9.688;2023-02-28T14:29:41;3.40;;;3.03;;
20609;SDS011;10463;52.378;9.688;2023-02-28T14:32:49;4.33;;;3.27;;
20609;SDS011;10463;52.378;9.688;2023-02-28T14:35:50;3.37;;;2.77;;
20609;SDS011;10463;52.378;9.688;2023-02-28T14:38:51;2.90;;;2.30;;
20609;SDS011;10463;52.378;9.688;2023-02-28T14:41:40;5.47;;;3.70;;
20609;SDS011;10463;52.378;9.688;2023-02-28T14:44:27;4.27;;;3.47;;
20609;SDS011;10463;52.378;9.688;2023-02-28T14:47:14;5.10;;;3.50;;
20609;SDS011;10463;52.378;9.688;2023-02-28T14:50:03;4.40;;;3.70;;
20609;SDS011;10463;52.378;9.688;2023-02-28T14:52:51;4.00;;;3.57;;
20609;SDS011;10463;52.378;9.688;2023-02-28T14:55:37;4.60;;;3.50;;
20609;SDS011;10463;52.378;9.688;2023-02-28T14:58:29;4.40;;;3.40;;
20609;SDS011;10463;52.378;9.688;2023-02-28T15:01:15;3.67;;;2.57;;
20609;SDS011;10463;52.378;9.688;2023-02-28T15:04:06;3.10;;;2.80;;
20609;SDS011;10463;52.378;9.688;2023-02-28T15:07:10;3.70;;;3.03;;
20609;SDS011;10463;52.378;9.688;2023-02-28T15:10:09;3.60;;;2.70;;
20609;SDS011;10463;52.378;9.688;2023-02-28T15:12:59;3.70;;;2.80;;
20609;SDS011;10463;52.378;9.688;2023-02-28T15:15:49;3.83;;;2.80;;
20609;SDS011;10463;52.378;9.688;2023-02-28T15:18:42;3.20;;;2.80;;
20609;SDS011;10463;52.378;9.688;2023-02-28T15:21:33;5.63;;;3.23;;
20609;SDS011;10463;52.378;9.688;2023-02-28T15:24:30;5.10;;;2.90;;
20609;SDS011;10463;52.378;9.688;2023-02-28T15:27:20;3.67;;;2.97;;
20609;SDS011;10463;52.378;9.688;2023-02-28T15:30:13;4.93;;;2.60;;
20609;SDS011;10463;52.378;9.688;2023-02-28T15:33:21;5.00;;;3.20;;
20609;SDS011;10463;52.378;9.688;2023-02-28T15:36:13;3.63;;;2.90;;
20609;SDS011;10463;52.378;9.688;2023-02-28T15:39:01;3.67;;;2.77;;
20609;SDS011;10463;52.378;9.688;2023-02-28T15:41:48;3.63;;;2.57;;
20609;SDS011;10463;52.378;9.688;2023-02-28T15:44:34;3.97;;;3.00;;
20609;SDS011;10463;52.378;9.688;2023-02-28T15:47:20;3.57;;;2.87;;
20609;SDS011;10463;52.378;9.688;2023-02-28T15:50:10;3.87;;;3.30;;
20609;SDS011;10463;52.378;9.688;2023-02-28T15:52:58;4.37;;;2.90;;
20609;SDS011;10463;52.378;9.688;2023-02-28T15:55:53;3.97;;;3.40;;
20609;SDS011;10463;52.378;9.688;2023-02-28T15:58:41;3.33;;;2.90;;
20609;SDS011;10463;52.378;9.688;2023-02-28T16:01:27;3.93;;;3.30;;
20609;SDS011;10463;52.378;9.688;2023-02-28T16:04:18;3.83;;;2.77;;
20609;SDS011;10463;52.378;9.688;2023-02-28T16:07:04;3.70;;;3.00;;
20609;SDS011;10463;52.378;9.688;2023-02-28T16:09:49;3.50;;;2.73;;
20609;SDS011;10463;52.378;9.688;2023-02-28T16:12:37;3.10;;;2.40;;
20609;SDS011;10463;52.378;9.688;2023-02-28T16:15:26;3.13;;;2.50;;
20609;SDS011;10463;52.378;9.688;2023-02-28T16:18:13;2.97;;;2.10;;
20609;SDS011;10463;52.378;9.688;2023-02-28T16:20:57;3.37;;;2.40;;
20609;SDS011;10463;52.378;9.688;2023-02-28T16:23:42;2.90;;;2.27;;
20609;SDS011;10463;52.378;9.688;2023-02-28T16:26:26;4.20;;;2.40;;
20609;SDS011;10463;52.378;9.688;2023-02-28T16:29:14;2.90;;;2.10;;
20609;SDS011;10463;52.378;9.688;2023-02-28T16:32:07;4.50;;;2.80;;
20609;SDS011;10463;52.378;9.688;2023-02-28T16:34:52;3.17;;;2.47;;
20609;SDS011;10463;52.378;9.688;2023-02-28T16:37:36;4.60;;;2.47;;
20609;SDS011;10463;52.378;9.688;2023-02-28T16:40:23;3.93;;;2.37;;
20609;SDS011;10463;52.378;9.688;2023-02-28T16:43:15;3.47;;;2.60;;
20609;SDS011;10463;52.378;9.688;2023-02-28T16:46:03;2.87;;;2.23;;
20609;SDS011;10463;52.378;9.688;2023-02-28T16:48:51;3.50;;;2.20;;
20609;SDS011;10463;52.378;9.688;2023-02-28T16:51:36;2.53;;;1.83;;
20609;SDS011;10463;52.378;9.688;2023-02-28T16:54:20;2.67;;;2.07;;
20609;SDS011;10463;52.378;9.688;2023-02-28T16:57:05;3.70;;;2.20;;
20609;SDS011;10463;52.378;9.688;2023-02-28T16:59:50;3.17;;;2.47;;
20609;SDS011;10463;52.378;9.688;2023-02-28T17:02:35;3.13;;;2.30;;
20609;SDS011;10463;52.378;9.688;2023-02-28T17:05:21;3.07;;;2.10;;
20609;SDS011;10463;52.378;9.688;2023-02-28T17:08:06;2.80;;;1.90;;
20609;SDS011;10463;52.378;9.688;2023-02-28T17:10:52;3.20;;;2.10;;
20609;SDS011;10463;52.378;9.688;2023-02-28T17:13:37;2.80;;;2.00;;
20609;SDS011;10463;52.378;9.688;2023-02-28T17:16:24;2.50;;;1.80;;
20609;SDS011;10463;52.378;9.688;2023-02-28T17:19:13;3.27;;;1.93;;
20609;SDS011;10463;52.378;9.688;2023-02-28T17:22:00;2.50;;;1.60;;
20609;SDS011;10463;52.378;9.688;2023-02-28T17:24:45;2.97;;;1.80;;
20609;SDS011;10463;52.378;9.688;2023-02-28T17:27:30;2.30;;;1.53;;
20609;SDS011;10463;52.378;9.688;2023-02-28T17:30:16;2.77;;;1.83;;
20609;SDS011;10463;52.378;9.688;2023-02-28T17:33:03;5.07;;;2.27;;